createdAt,value
2023-01-19T00:00:39.376Z,87.20
2023-01-19T00:03:06.148Z,86.80
2023-01-19T00:05:32.950Z,86.60
2023-01-19T00:07:59.997Z,86.70
2023-01-19T00:10:26.880Z,86.70
2023-01-19T00:12:53.602Z,86.60
2023-01-19T00:15:20.280Z,86.60
2023-01-19T00:17:46.894Z,86.60
2023-01-19T00:20:13.760Z,86.60
2023-01-19T00:22:40.444Z,86.70
2023-01-19T00:25:07.547Z,86.50
2023-01-19T00:27:34.199Z,86.30
2023-01-19T00:30:00.961Z,86.10
2023-01-19T00:32:27.586Z,86.00
2023-01-19T00:34:54.183Z,86.00
2023-01-19T00:37:20.802Z,86.10
2023-01-19T00:39:47.453Z,86.00
2023-01-19T00:42:16.662Z,85.80
2023-01-19T00:44:43.256Z,85.80
2023-01-19T00:47:09.978Z,85.90
2023-01-19T00:49:36.648Z,86.00
2023-01-19T00:52:03.311Z,85.90
2023-01-19T00:54:29.997Z,85.80
2023-01-19T00:56:56.639Z,85.80
2023-01-19T00:59:23.293Z,85.80
2023-01-19T01:01:50.062Z,85.70
2023-01-19T01:04:16.852Z,85.60
2023-01-19T01:06:43.577Z,85.60
2023-01-19T01:09:10.241Z,85.50
2023-01-19T01:11:37.220Z,85.40
2023-01-19T01:14:03.821Z,85.40
2023-01-19T01:16:30.478Z,85.50
2023-01-19T01:18:57.236Z,85.90
2023-01-19T01:21:26.044Z,85.80
2023-01-19T01:23:52.990Z,85.90
2023-01-19T01:26:19.826Z,85.90
2023-01-19T01:28:46.445Z,86.30
2023-01-19T01:31:13.180Z,86.50
2023-01-19T01:33:47.544Z,86.40
2023-01-19T01:36:14.153Z,86.60
2023-01-19T01:38:41.223Z,86.70
2023-01-19T01:41:08.097Z,86.90
2023-01-19T01:43:51.450Z,86.90
2023-01-19T01:46:18.303Z,87.10
2023-01-19T01:49:05.252Z,87.00
2023-01-19T01:51:33.835Z,87.10
2023-01-19T01:54:07.775Z,87.00
2023-01-19T01:56:42.723Z,87.10
2023-01-19T01:59:34.418Z,87.00
2023-01-19T02:02:07.340Z,87.20
2023-01-19T02:04:34.402Z,87.30
2023-01-19T02:07:01.100Z,87.50
2023-01-19T02:09:27.879Z,87.50
2023-01-19T02:11:55.634Z,87.70
2023-01-19T02:14:22.290Z,87.90
2023-01-19T02:16:48.979Z,88.30
2023-01-19T02:19:18.179Z,88.50
2023-01-19T02:22:20.299Z,88.40
2023-01-19T02:24:46.966Z,88.50
2023-01-19T02:27:13.611Z,88.50
2023-01-19T02:29:40.361Z,88.40
2023-01-19T02:32:07.041Z,88.40
2023-01-19T02:34:33.811Z,88.40
2023-01-19T02:37:08.447Z,88.40
2023-01-19T02:39:41.532Z,88.30
2023-01-19T02:42:13.438Z,88.40
2023-01-19T02:44:40.018Z,88.50
2023-01-19T02:47:06.636Z,88.50
2023-01-19T02:49:33.293Z,88.50
2023-01-19T02:51:59.944Z,88.50
2023-01-19T02:55:00.455Z,88.50
2023-01-19T02:57:47.301Z,88.50
2023-01-19T03:00:41.431Z,88.50
2023-01-19T03:03:19.854Z,88.50
2023-01-19T03:06:08.817Z,88.60
2023-01-19T03:08:47.871Z,88.40
2023-01-19T03:11:14.599Z,88.50
2023-01-19T03:13:54.138Z,88.70
2023-01-19T03:16:22.567Z,88.60
2023-01-19T03:18:55.837Z,88.70
2023-01-19T03:21:24.070Z,88.70
2023-01-19T03:23:50.737Z,88.80
2023-01-19T03:26:24.261Z,88.90
2023-01-19T03:28:52.357Z,88.90
2023-01-19T03:31:26.458Z,88.90
2023-01-19T03:34:11.559Z,89.00
2023-01-19T03:36:44.274Z,89.30
2023-01-19T03:39:11.184Z,89.10
2023-01-19T03:41:37.859Z,89.20
2023-01-19T03:44:04.699Z,89.30
2023-01-19T03:46:31.383Z,89.20
2023-01-19T03:48:58.069Z,89.20
2023-01-19T03:51:24.726Z,89.20
2023-01-19T03:53:51.475Z,89.20
2023-01-19T03:56:25.299Z,89.20
2023-01-19T03:58:51.962Z,89.30
2023-01-19T04:01:19.168Z,89.40
2023-01-19T04:03:53.365Z,89.30
2023-01-19T04:06:20.688Z,89.40
2023-01-19T04:08:50.825Z,89.40
2023-01-19T04:11:19.776Z,89.50
2023-01-19T04:14:33.434Z,89.50
2023-01-19T04:16:35.925Z,89.60
2023-01-19T04:19:02.597Z,89.40
2023-01-19T04:21:30.402Z,89.40
2023-01-19T04:24:07.391Z,89.50
2023-01-19T04:26:34.000Z,89.70
2023-01-19T04:29:00.769Z,89.60
2023-01-19T04:31:27.583Z,89.50
2023-01-19T04:33:57.834Z,89.40
2023-01-19T04:36:24.485Z,89.20
2023-01-19T04:38:51.180Z,89.20
2023-01-19T04:41:17.833Z,89.20
2023-01-19T04:43:54.716Z,89.50
2023-01-19T04:46:25.029Z,89.70
2023-01-19T04:49:00.589Z,89.70
2023-01-19T04:51:27.307Z,89.60
2023-01-19T04:53:54.188Z,89.60
2023-01-19T04:56:20.836Z,89.60
2023-01-19T04:58:47.489Z,89.60
2023-01-19T05:01:14.231Z,89.50
2023-01-19T05:03:41.001Z,89.60
2023-01-19T05:06:07.752Z,89.60
2023-01-19T05:08:34.419Z,89.60
2023-01-19T05:11:01.066Z,89.80
2023-01-19T05:13:27.709Z,89.80
2023-01-19T05:15:54.389Z,89.70
2023-01-19T05:18:21.058Z,89.80
2023-01-19T05:20:47.698Z,89.80
2023-01-19T05:23:14.408Z,89.70
2023-01-19T05:25:42.673Z,89.80
2023-01-19T05:28:09.270Z,89.80
2023-01-19T05:30:35.994Z,89.70
2023-01-19T05:33:02.924Z,89.90
2023-01-19T05:35:35.645Z,89.90
2023-01-19T05:38:02.760Z,89.90
2023-01-19T05:40:29.399Z,89.90
2023-01-19T05:42:56.077Z,89.80
2023-01-19T05:45:22.712Z,89.80
2023-01-19T05:47:49.613Z,90.00
2023-01-19T05:50:16.333Z,90.00
2023-01-19T05:52:42.967Z,89.90
2023-01-19T05:55:09.814Z,89.70
2023-01-19T05:57:36.561Z,89.50
2023-01-19T06:00:04.847Z,89.30
2023-01-19T06:02:31.568Z,89.40
2023-01-19T06:04:58.230Z,89.20
2023-01-19T06:07:25.652Z,89.30
2023-01-19T06:09:53.271Z,89.30
2023-01-19T06:12:19.989Z,89.30
2023-01-19T06:14:46.824Z,89.40
2023-01-19T06:17:13.549Z,89.10
2023-01-19T06:19:40.244Z,89.00
2023-01-19T06:22:06.933Z,89.10
2023-01-19T06:24:33.672Z,89.10
2023-01-19T06:27:00.410Z,89.00
2023-01-19T06:29:28.751Z,89.20
2023-01-19T06:31:56.112Z,89.30
2023-01-19T06:34:22.862Z,89.30
2023-01-19T06:36:53.913Z,89.10
2023-01-19T06:39:22.450Z,89.00
2023-01-19T06:41:49.240Z,89.10
2023-01-19T06:44:16.165Z,89.10
2023-01-19T06:46:44.206Z,89.10
2023-01-19T06:49:10.927Z,89.20
2023-01-19T06:51:39.343Z,89.10
2023-01-19T06:54:09.520Z,89.10
2023-01-19T06:56:36.257Z,89.20
2023-01-19T06:59:02.908Z,89.10
2023-01-19T07:01:29.627Z,89.00
2023-01-19T07:03:56.292Z,89.00
2023-01-19T07:06:23.338Z,88.90
2023-01-19T07:08:50.015Z,88.90
2023-01-19T07:11:24.817Z,88.90
2023-01-19T07:13:56.739Z,88.90
2023-01-19T07:16:23.570Z,88.90
2023-01-19T07:18:50.338Z,88.90
2023-01-19T07:21:17.081Z,88.70
2023-01-19T07:23:43.712Z,88.70
2023-01-19T07:26:10.451Z,88.50
2023-01-19T07:28:37.094Z,88.40
2023-01-19T07:31:03.954Z,88.70
2023-01-19T07:33:30.721Z,88.70
2023-01-19T07:35:57.404Z,89.00
2023-01-19T07:38:24.091Z,88.90
2023-01-19T07:40:53.193Z,88.90
2023-01-19T07:43:19.812Z,89.20
2023-01-19T07:45:46.713Z,89.60
2023-01-19T07:48:13.465Z,89.50
2023-01-19T07:50:40.125Z,89.70
2023-01-19T07:53:08.147Z,89.60
2023-01-19T07:55:37.745Z,89.60
2023-01-19T07:58:04.409Z,89.80
2023-01-19T08:00:31.106Z,89.70
2023-01-19T08:03:06.637Z,89.90
2023-01-19T08:05:33.332Z,89.70
2023-01-19T08:08:00.154Z,89.90
2023-01-19T08:10:27.337Z,89.90
2023-01-19T08:12:57.425Z,90.00
2023-01-19T08:15:24.137Z,90.00
2023-01-19T08:18:08.797Z,90.00
2023-01-19T08:20:37.410Z,89.80
2023-01-19T08:23:04.389Z,90.00
2023-01-19T08:25:36.608Z,90.30
2023-01-19T08:28:04.136Z,90.40
2023-01-19T08:30:30.858Z,90.60
2023-01-19T08:32:57.721Z,90.60
2023-01-19T08:35:25.408Z,90.60
2023-01-19T08:37:52.345Z,90.50
2023-01-19T08:40:19.481Z,90.50
2023-01-19T08:42:46.282Z,90.50
2023-01-19T08:45:13.070Z,90.40
2023-01-19T08:47:46.854Z,90.20
2023-01-19T08:50:40.702Z,90.20
2023-01-19T08:54:24.323Z,90.10
2023-01-19T08:56:29.140Z,90.20
2023-01-19T08:59:08.619Z,90.40
2023-01-19T09:01:36.228Z,90.50
2023-01-19T09:04:02.972Z,90.50
2023-01-19T09:06:29.681Z,90.50
2023-01-19T09:09:01.367Z,90.60
2023-01-19T09:11:48.827Z,90.60
2023-01-19T09:14:32.653Z,90.60
2023-01-19T09:17:11.745Z,90.60
2023-01-19T09:19:38.655Z,90.70
2023-01-19T09:22:05.450Z,90.80
2023-01-19T09:24:32.136Z,90.70
2023-01-19T09:27:01.270Z,90.80
2023-01-19T09:29:27.944Z,90.70
2023-01-19T09:31:54.621Z,90.80
2023-01-19T09:34:21.376Z,90.70
2023-01-19T09:36:47.985Z,90.80
2023-01-19T09:39:14.782Z,90.90
2023-01-19T09:41:42.650Z,90.90
2023-01-19T09:44:09.371Z,90.80
2023-01-19T09:46:40.355Z,90.80
2023-01-19T09:49:16.192Z,90.90
2023-01-19T09:51:47.491Z,90.90
2023-01-19T09:54:18.463Z,91.00
2023-01-19T09:56:46.091Z,91.00
2023-01-19T09:59:25.309Z,91.20
2023-01-19T10:02:13.364Z,93.00
2023-01-19T10:05:01.737Z,94.50
2023-01-19T10:07:46.352Z,93.00
2023-01-19T10:10:16.572Z,89.70
2023-01-19T10:12:55.331Z,89.20
2023-01-19T10:16:03.605Z,89.10
2023-01-19T10:18:42.626Z,89.00
2023-01-19T10:21:14.668Z,89.80
2023-01-19T10:23:59.774Z,89.70
2023-01-19T10:26:32.141Z,89.40
2023-01-19T10:29:03.231Z,89.30
2023-01-19T10:31:30.214Z,91.30
2023-01-19T10:33:57.128Z,91.20
2023-01-19T10:36:41.871Z,90.00
2023-01-19T10:39:09.921Z,88.60
2023-01-19T10:41:52.998Z,85.90
2023-01-19T10:44:27.463Z,83.80
2023-01-19T10:46:58.168Z,84.80
2023-01-19T10:49:26.068Z,84.60
2023-01-19T10:51:52.890Z,83.10
2023-01-19T10:54:19.821Z,82.30
2023-01-19T10:57:09.104Z,80.50
2023-01-19T10:59:37.925Z,79.00
2023-01-19T11:02:16.950Z,78.40
2023-01-19T11:04:44.035Z,75.20
2023-01-19T11:07:19.356Z,74.30
2023-01-19T11:09:46.858Z,72.20
2023-01-19T11:12:22.097Z,71.50
2023-01-19T11:14:49.761Z,69.40
2023-01-19T11:17:23.901Z,69.10
2023-01-19T11:20:00.706Z,67.70
2023-01-19T11:22:31.839Z,65.20
2023-01-19T11:25:02.923Z,66.10
2023-01-19T11:27:30.902Z,65.30
2023-01-19T11:30:06.677Z,64.50
2023-01-19T11:32:33.244Z,63.70
2023-01-19T11:35:00.036Z,63.70
2023-01-19T11:37:29.303Z,64.50
2023-01-19T11:40:02.685Z,63.10
2023-01-19T11:42:34.082Z,62.10
2023-01-19T11:45:12.764Z,60.90
2023-01-19T11:48:10.299Z,60.80
2023-01-19T11:50:46.020Z,57.40
2023-01-19T11:53:24.145Z,59.60
2023-01-19T11:55:59.264Z,56.90
2023-01-19T11:58:26.024Z,58.80
2023-01-19T12:00:58.486Z,58.40
2023-01-19T12:03:30.090Z,57.60
2023-01-19T12:06:18.555Z,56.20
2023-01-19T12:08:52.294Z,55.00
2023-01-19T12:11:22.713Z,56.70
2023-01-19T12:13:49.392Z,57.20
2023-01-19T12:16:32.880Z,56.80
2023-01-19T12:19:18.200Z,56.40
2023-01-19T12:21:44.849Z,57.50
2023-01-19T12:24:29.719Z,56.80
2023-01-19T12:27:05.907Z,54.60
2023-01-19T12:29:33.943Z,54.40
2023-01-19T12:32:15.908Z,53.50
2023-01-19T12:34:42.588Z,53.30
2023-01-19T12:37:27.526Z,53.90
2023-01-19T12:39:54.560Z,53.60
2023-01-19T12:42:27.272Z,52.90
2023-01-19T12:45:08.016Z,52.60
2023-01-19T12:47:35.863Z,52.40
2023-01-19T12:50:05.240Z,51.40
2023-01-19T12:52:57.019Z,50.60
2023-01-19T12:55:44.008Z,49.20
2023-01-19T12:58:17.224Z,47.80
2023-01-19T13:00:47.756Z,49.00
2023-01-19T13:03:34.741Z,49.20
2023-01-19T13:06:01.455Z,49.50
2023-01-19T13:08:29.852Z,49.70
2023-01-19T13:10:59.559Z,48.70
2023-01-19T13:13:33.615Z,48.80
2023-01-19T13:16:20.479Z,48.70
2023-01-19T13:19:00.953Z,48.10
2023-01-19T13:21:31.589Z,48.40
2023-01-19T13:24:08.841Z,48.70
2023-01-19T13:26:37.115Z,48.50
2023-01-19T13:29:03.784Z,47.90
2023-01-19T13:31:37.822Z,47.30
2023-01-19T13:34:05.166Z,47.20
2023-01-19T13:36:33.401Z,47.40
2023-01-19T13:39:18.520Z,47.50
2023-01-19T13:41:45.423Z,47.20
2023-01-19T13:44:18.522Z,47.90
2023-01-19T13:46:45.823Z,49.10
2023-01-19T13:49:23.005Z,50.70
2023-01-19T13:52:13.689Z,52.70
2023-01-19T13:54:53.755Z,54.10
2023-01-19T13:57:23.796Z,55.60
2023-01-19T14:00:06.323Z,56.60
2023-01-19T14:02:33.223Z,57.30
2023-01-19T14:05:28.668Z,57.90
2023-01-19T14:08:10.275Z,58.80
2023-01-19T14:10:53.211Z,59.10
2023-01-19T14:13:27.808Z,60.00
2023-01-19T14:15:56.322Z,59.90
2023-01-19T14:18:29.946Z,60.30
2023-01-19T14:21:06.594Z,60.60
2023-01-19T14:23:49.788Z,61.10
2023-01-19T14:26:38.096Z,61.10
2023-01-19T14:29:18.196Z,61.80
2023-01-19T14:31:49.184Z,62.20
2023-01-19T14:34:31.082Z,61.30
2023-01-19T14:36:57.984Z,61.20
2023-01-19T14:39:26.162Z,60.70
2023-01-19T14:41:52.902Z,61.10
2023-01-19T14:44:26.352Z,61.80
2023-01-19T14:46:52.994Z,62.60
2023-01-19T14:49:23.635Z,63.20
2023-01-19T14:51:54.559Z,63.90
2023-01-19T14:54:27.946Z,64.30
2023-01-19T14:56:54.729Z,65.10
2023-01-19T14:59:21.379Z,65.50
2023-01-19T15:01:48.099Z,66.10
2023-01-19T15:04:14.783Z,66.40
2023-01-19T15:06:42.315Z,66.70
2023-01-19T15:09:10.797Z,67.50
2023-01-19T15:11:37.633Z,67.60
2023-01-19T15:14:04.406Z,67.90
2023-01-19T15:16:32.628Z,68.40
2023-01-19T15:18:59.461Z,68.60
2023-01-19T15:21:28.148Z,69.00
2023-01-19T15:23:54.955Z,69.20
2023-01-19T15:26:23.193Z,69.10
2023-01-19T15:28:50.128Z,69.10
2023-01-19T15:31:21.376Z,69.20
2023-01-19T15:33:48.132Z,69.60
2023-01-19T15:36:19.041Z,69.60
2023-01-19T15:38:46.419Z,70.00
2023-01-19T15:41:26.367Z,70.20
2023-01-19T15:43:53.163Z,70.40
2023-01-19T15:46:20.173Z,70.80
2023-01-19T15:48:48.820Z,70.90
2023-01-19T15:51:17.207Z,71.10
2023-01-19T15:53:44.158Z,71.10
2023-01-19T15:56:34.050Z,71.10
2023-01-19T15:59:01.565Z,71.30
2023-01-19T16:01:28.884Z,71.10
2023-01-19T16:03:55.643Z,71.50
2023-01-19T16:06:22.319Z,71.50
2023-01-19T16:08:49.074Z,72.10
2023-01-19T16:11:18.113Z,71.90
2023-01-19T16:13:45.320Z,72.10
2023-01-19T16:16:16.774Z,72.40
2023-01-19T16:18:43.452Z,72.70
2023-01-19T16:21:10.143Z,73.00
2023-01-19T16:23:36.972Z,73.00
2023-01-19T16:26:08.407Z,72.90
2023-01-19T16:28:36.020Z,73.20
2023-01-19T16:31:02.812Z,73.20
2023-01-19T16:33:29.654Z,73.30
2023-01-19T16:35:56.434Z,73.50
2023-01-19T16:38:23.457Z,73.60
2023-01-19T16:40:50.074Z,73.60
2023-01-19T16:43:16.841Z,73.70
2023-01-19T16:46:00.233Z,74.00
2023-01-19T16:48:27.323Z,73.90
2023-01-19T16:51:06.762Z,74.00
2023-01-19T16:53:33.885Z,74.20
2023-01-19T16:56:14.866Z,74.40
2023-01-19T16:58:41.809Z,74.70
2023-01-19T17:01:18.235Z,74.80
2023-01-19T17:03:46.844Z,75.00
2023-01-19T17:06:15.159Z,74.90
2023-01-19T17:08:42.002Z,74.90
2023-01-19T17:11:13.041Z,75.00
2023-01-19T17:13:39.712Z,75.20
2023-01-19T17:16:06.736Z,75.40
2023-01-19T17:18:34.725Z,75.40
2023-01-19T17:21:02.380Z,75.60
2023-01-19T17:23:29.752Z,75.90
2023-01-19T17:25:56.658Z,75.80
2023-01-19T17:28:23.455Z,76.00
2023-01-19T17:30:50.186Z,76.10
2023-01-19T17:33:18.265Z,76.50
2023-01-19T17:35:46.832Z,76.60
2023-01-19T17:38:13.699Z,76.50
2023-01-19T17:40:40.515Z,76.80
2023-01-19T17:43:07.300Z,76.90
2023-01-19T17:45:37.092Z,76.90
2023-01-19T17:48:04.557Z,77.10
2023-01-19T17:50:32.643Z,77.30
2023-01-19T17:52:59.802Z,77.40
2023-01-19T17:55:26.460Z,77.20
2023-01-19T17:57:53.102Z,77.30
2023-01-19T18:00:20.178Z,77.40
2023-01-19T18:02:49.674Z,77.50
2023-01-19T18:05:16.520Z,77.30
2023-01-19T18:07:43.246Z,77.40
2023-01-19T18:10:11.862Z,77.60
2023-01-19T18:12:38.624Z,77.70
2023-01-19T18:15:06.335Z,77.80
2023-01-19T18:17:33.117Z,78.00
2023-01-19T18:19:59.976Z,77.80
2023-01-19T18:22:26.769Z,77.90
2023-01-19T18:24:53.378Z,78.20
2023-01-19T18:27:20.045Z,78.60
2023-01-19T18:29:46.753Z,78.70
2023-01-19T18:32:13.546Z,78.90
2023-01-19T18:34:40.353Z,79.00
2023-01-19T18:37:07.206Z,78.80
2023-01-19T18:39:33.956Z,78.90
2023-01-19T18:42:01.279Z,78.70
2023-01-19T18:44:28.082Z,78.90
2023-01-19T18:46:54.746Z,78.90
2023-01-19T18:49:21.600Z,79.00
2023-01-19T18:51:48.279Z,79.40
2023-01-19T18:54:15.029Z,79.50
2023-01-19T18:56:43.367Z,79.40
2023-01-19T18:59:10.114Z,79.40
2023-01-19T19:01:36.984Z,79.30
2023-01-19T19:04:03.778Z,79.40
2023-01-19T19:06:30.443Z,79.50
2023-01-19T19:08:57.607Z,79.60
2023-01-19T19:11:24.651Z,80.00
2023-01-19T19:13:52.667Z,80.10
2023-01-19T19:16:19.447Z,80.40
2023-01-19T19:18:46.251Z,80.60
2023-01-19T19:21:12.928Z,80.70
2023-01-19T19:23:40.698Z,80.80
2023-01-19T19:26:09.163Z,80.80
2023-01-19T19:28:36.669Z,80.60
2023-01-19T19:31:05.229Z,80.60
2023-01-19T19:33:32.120Z,80.70
2023-01-19T19:36:00.221Z,80.80
2023-01-19T19:38:27.747Z,80.80
2023-01-19T19:40:54.673Z,80.70
2023-01-19T19:43:21.782Z,80.90
2023-01-19T19:46:02.371Z,81.00
2023-01-19T19:48:29.234Z,81.10
2023-01-19T19:50:56.670Z,81.70
2023-01-19T19:53:24.283Z,81.70
2023-01-19T19:55:58.175Z,81.30
2023-01-19T19:58:25.213Z,81.30
2023-01-19T20:00:52.130Z,81.40
2023-01-19T20:03:19.003Z,81.50
2023-01-19T20:05:45.770Z,81.50
2023-01-19T20:08:12.480Z,81.70
2023-01-19T20:10:39.098Z,81.40
2023-01-19T20:13:08.153Z,81.60
2023-01-19T20:15:36.830Z,81.60
2023-01-19T20:18:04.946Z,81.90
2023-01-19T20:20:32.197Z,81.90
2023-01-19T20:22:59.994Z,82.10
2023-01-19T20:25:27.098Z,82.30
2023-01-19T20:27:54.200Z,82.20
2023-01-19T20:30:21.236Z,82.20
2023-01-19T20:32:47.999Z,82.00
2023-01-19T20:35:16.980Z,81.70
2023-01-19T20:37:43.699Z,81.60
2023-01-19T20:40:10.474Z,81.80
2023-01-19T20:42:37.143Z,81.80
2023-01-19T20:45:04.206Z,81.60
2023-01-19T20:47:31.042Z,81.60
2023-01-19T20:49:57.647Z,81.10
2023-01-19T20:52:24.509Z,81.10
2023-01-19T20:54:51.251Z,81.20
2023-01-19T20:57:18.100Z,81.40
2023-01-19T20:59:44.712Z,81.60
2023-01-19T21:02:11.764Z,81.50
2023-01-19T21:04:38.558Z,81.50
2023-01-19T21:07:05.442Z,81.80
2023-01-19T21:09:32.311Z,82.20
2023-01-19T21:11:59.375Z,82.60
2023-01-19T21:14:26.901Z,82.80
2023-01-19T21:16:53.623Z,82.80
2023-01-19T21:19:20.347Z,82.70
2023-01-19T21:21:47.159Z,82.90
2023-01-19T21:24:13.961Z,82.90
2023-01-19T21:26:40.718Z,83.10
2023-01-19T21:29:07.688Z,82.90
2023-01-19T21:31:34.497Z,83.10
2023-01-19T21:34:01.316Z,83.10
2023-01-19T21:36:28.057Z,83.10
2023-01-19T21:38:54.845Z,83.10
2023-01-19T21:41:21.496Z,83.20
2023-01-19T21:43:48.213Z,83.50
2023-01-19T21:46:24.798Z,83.60
2023-01-19T21:48:53.624Z,83.70
2023-01-19T21:51:20.361Z,83.90
2023-01-19T21:53:55.805Z,83.90
2023-01-19T21:56:35.942Z,83.90
2023-01-19T21:59:02.788Z,83.90
2023-01-19T22:01:32.092Z,84.50
2023-01-19T22:03:59.887Z,84.20
2023-01-19T22:06:26.877Z,84.30
2023-01-19T22:08:54.134Z,84.30
2023-01-19T22:11:21.206Z,84.10
2023-01-19T22:13:48.022Z,83.90
2023-01-19T22:16:16.595Z,83.90
2023-01-19T22:18:45.172Z,84.10
2023-01-19T22:21:16.402Z,84.10
2023-01-19T22:23:43.508Z,83.90
2023-01-19T22:26:10.870Z,84.10
2023-01-19T22:28:37.611Z,83.90
2023-01-19T22:31:15.430Z,84.00
2023-01-19T22:33:42.461Z,83.90
2023-01-19T22:36:15.945Z,83.90
2023-01-19T22:38:43.269Z,83.90
2023-01-19T22:41:17.770Z,84.10
2023-01-19T22:43:44.591Z,84.10
2023-01-19T22:46:11.446Z,84.20
2023-01-19T22:48:38.118Z,83.90
2023-01-19T22:51:04.812Z,83.90
2023-01-19T22:53:33.232Z,83.80
2023-01-19T22:55:59.844Z,83.80
2023-01-19T22:58:29.466Z,83.90
2023-01-19T23:00:56.171Z,83.90
2023-01-19T23:03:23.087Z,84.20
2023-01-19T23:05:49.896Z,84.50
2023-01-19T23:08:16.565Z,84.40
2023-01-19T23:10:43.245Z,84.30
2023-01-19T23:13:09.936Z,84.40
2023-01-19T23:15:36.619Z,84.70
2023-01-19T23:18:03.357Z,85.00
2023-01-19T23:20:29.998Z,85.30
2023-01-19T23:22:56.619Z,85.30
2023-01-19T23:25:23.291Z,85.20
2023-01-19T23:27:50.064Z,85.10
2023-01-19T23:30:17.114Z,85.30
2023-01-19T23:32:47.302Z,85.20
2023-01-19T23:35:14.416Z,84.80
2023-01-19T23:37:41.252Z,84.70
2023-01-19T23:40:09.092Z,84.80
2023-01-19T23:42:36.466Z,84.80
2023-01-19T23:45:03.211Z,84.80
2023-01-19T23:47:29.851Z,85.00
2023-01-19T23:49:56.507Z,85.00
2023-01-19T23:52:33.455Z,84.90
2023-01-19T23:55:00.072Z,85.00
2023-01-19T23:57:26.813Z,85.20
2023-01-19T23:59:53.499Z,85.40
